Ashdown, AR

4:56 AM CDT on August 30, 2016 (GMT -0500)
Town and Country | | Change Station

Elev 341 ft 33.67 °N, 94.10 °W | Updated 15 seconds ago

Clear
Clear
74.5 °F
Feels Like 76 °F
N
0.0
Wind Variable Wind from NW
Gusts 0.0 mph

Today
High -- | Low -- °F
--% Chance of Precip.
Yesterday
High -- | Low -- °F
Precip. -- in
Pressure 30.01 in
Visibility 5.0 miles
Clouds Clear
Heat Index 76 °F
Dew Point 64 °F
Humidity 70%
Rainfall 0.00 in
Snow Depth Not available.
6:49 AM 7:43 PM
Waning Crescent, 4% visible
METAR KTXK 300953Z AUTO 03003KT 5SM BR CLR 24/23 A3002 RMK AO2 SLP161 T02390228
Pressure 30.01 in
Visibility 5.0 miles
Clouds Clear
Heat Index 76 °F
Dew Point 64 °F
Humidity 70%
Rainfall 0.00 in
Snow Depth Not available.
6:49 AM 7:43 PM
Waning Crescent, 4% visible
METAR KTXK 300953Z AUTO 03003KT 5SM BR CLR 24/23 A3002 RMK AO2 SLP161 T02390228

10-Day Weather Forecast

Almanac

Astronomy

Aug. 30, 2016 Rise Set
Actual Time
Civil Twilight
Nautical Twilight
Astronomical Twilight
Moon
Length of Visible Light
Length of Day
Tomorrow will be .
, % of the Moon is Illuminated

Today's Extremes

State Highs State Lows

Community

WunderPhotos

Upload Photos

1,935,795 photos uploaded!

WunderBlog® & News

Nearby

Air Quality

  Air Quality AQ Index Pollutant
Not available.

Snow Depth

Station Depth Elevation

Earthquake Activity

City Distance Mag. Time & Date
Minimum magnitude displayed is 2.5.

Coastal Water Temperatures

Place Temperature

Stations

Nearby Weather Stations

Station Location Temp. Windchill Dew Point Humidity Wind Precip. Elev Updated Type
                   

Watches & Warnings

There are currently no watches in effect.